sensor_id;sensor_type;location;lat;lon;timestamp;pressure;altitude;pressure_sealevel;temperature;humidity
72124;BME280;63818;37.134;-8.548;2023-09-12T00:00:20;101335.2;;;22.7;76.3
72124;BME280;63818;37.134;-8.548;2023-09-12T00:05:06;101337.2;;;22.8;76.0
72124;BME280;63818;37.134;-8.548;2023-09-12T00:09:52;101332.7;;;22.6;76.2
72124;BME280;63818;37.134;-8.548;2023-09-12T00:14:38;101325.6;;;22.5;76.5
72124;BME280;63818;37.134;-8.548;2023-09-12T00:19:24;101326.7;;;22.5;76.8
72124;BME280;63818;37.134;-8.548;2023-09-12T00:24:10;101334.5;;;22.5;76.8
72124;BME280;63818;37.134;-8.548;2023-09-12T00:28:56;101329.4;;;22.5;76.6
72124;BME280;63818;37.134;-8.548;2023-09-12T00:33:42;101323.1;;;22.4;76.2
72124;BME280;63818;37.134;-8.548;2023-09-12T00:38:28;101329.8;;;22.5;76.3
72124;BME280;63818;37.134;-8.548;2023-09-12T00:43:15;101325.4;;;22.4;76.3
72124;BME280;63818;37.134;-8.548;2023-09-12T00:48:03;101325.8;;;22.4;76.2
72124;BME280;63818;37.134;-8.548;2023-09-12T00:52:50;101324.7;;;22.5;76.0
72124;BME280;63818;37.134;-8.548;2023-09-12T00:57:38;101320.4;;;22.5;75.8
72124;BME280;63818;37.134;-8.548;2023-09-12T01:02:24;101318.1;;;22.5;75.5
72124;BME280;63818;37.134;-8.548;2023-09-12T01:07:11;101323.1;;;22.5;75.8
72124;BME280;63818;37.134;-8.548;2023-09-12T01:11:58;101316.5;;;22.5;75.8
72124;BME280;63818;37.134;-8.548;2023-09-12T01:16:44;101314.3;;;22.6;75.7
72124;BME280;63818;37.134;-8.548;2023-09-12T01:21:46;101314.6;;;22.5;75.4
72124;BME280;63818;37.134;-8.548;2023-09-12T01:26:41;101309.4;;;22.4;76.1
72124;BME280;63818;37.134;-8.548;2023-09-12T01:31:29;101302.6;;;22.3;76.7
72124;BME280;63818;37.134;-8.548;2023-09-12T01:36:15;101312.0;;;22.4;76.8
72124;BME280;63818;37.134;-8.548;2023-09-12T01:41:02;101311.3;;;22.4;76.7
72124;BME280;63818;37.134;-8.548;2023-09-12T01:45:52;101305.0;;;22.4;76.8
72124;BME280;63818;37.134;-8.548;2023-09-12T01:50:39;101314.4;;;22.4;77.1
72124;BME280;63818;37.134;-8.548;2023-09-12T01:55:25;101303.5;;;22.4;76.6
72124;BME280;63818;37.134;-8.548;2023-09-12T02:00:12;101297.2;;;22.4;76.8
72124;BME280;63818;37.134;-8.548;2023-09-12T02:05:07;101301.1;;;22.4;76.5
72124;BME280;63818;37.134;-8.548;2023-09-12T02:09:54;101297.2;;;22.4;76.2
72124;BME280;63818;37.134;-8.548;2023-09-12T02:14:40;101302.0;;;22.4;76.0
72124;BME280;63818;37.134;-8.548;2023-09-12T02:19:27;101290.7;;;22.5;75.6
72124;BME280;63818;37.134;-8.548;2023-09-12T02:24:12;101289.5;;;22.5;75.3
72124;BME280;63818;37.134;-8.548;2023-09-12T02:28:59;101286.0;;;22.5;74.8
72124;BME280;63818;37.134;-8.548;2023-09-12T02:33:45;101291.5;;;22.5;74.9
72124;BME280;63818;37.134;-8.548;2023-09-12T02:38:31;101282.1;;;22.5;75.0
72124;BME280;63818;37.134;-8.548;2023-09-12T02:43:17;101278.6;;;22.5;74.5
72124;BME280;63818;37.134;-8.548;2023-09-12T02:48:03;101271.1;;;22.5;74.6
72124;BME280;63818;37.134;-8.548;2023-09-12T02:52:49;101274.2;;;22.5;75.4
72124;BME280;63818;37.134;-8.548;2023-09-12T02:57:35;101280.1;;;22.4;75.7
72124;BME280;63818;37.134;-8.548;2023-09-12T03:02:21;101278.9;;;22.5;76.5
72124;BME280;63818;37.134;-8.548;2023-09-12T03:07:07;101277.7;;;22.4;77.1
72124;BME280;63818;37.134;-8.548;2023-09-12T03:11:53;101270.7;;;22.5;77.1
72124;BME280;63818;37.134;-8.548;2023-09-12T03:16:39;101272.2;;;22.4;77.3
72124;BME280;63818;37.134;-8.548;2023-09-12T03:21:24;101272.2;;;22.4;77.4
72124;BME280;63818;37.134;-8.548;2023-09-12T03:26:10;101264.7;;;22.4;77.4
72124;BME280;63818;37.134;-8.548;2023-09-12T03:31:03;101269.8;;;22.4;77.4
72124;BME280;63818;37.134;-8.548;2023-09-12T03:35:52;101263.9;;;22.3;77.1
72124;BME280;63818;37.134;-8.548;2023-09-12T03:40:38;101261.9;;;22.3;77.0
72124;BME280;63818;37.134;-8.548;2023-09-12T03:45:24;101270.4;;;22.2;77.3
72124;BME280;63818;37.134;-8.548;2023-09-12T03:50:12;101271.6;;;22.3;77.1
72124;BME280;63818;37.134;-8.548;2023-09-12T03:54:59;101270.5;;;22.3;77.2
72124;BME280;63818;37.134;-8.548;2023-09-12T03:59:45;101279.1;;;22.2;76.8
72124;BME280;63818;37.134;-8.548;2023-09-12T04:04:30;101279.0;;;22.2;76.7
72124;BME280;63818;37.134;-8.548;2023-09-12T04:09:16;101286.9;;;22.2;76.8
72124;BME280;63818;37.134;-8.548;2023-09-12T04:14:02;101297.0;;;22.2;77.1
72124;BME280;63818;37.134;-8.548;2023-09-12T04:18:48;101301.7;;;22.2;78.1
72124;BME280;63818;37.134;-8.548;2023-09-12T04:23:34;101298.1;;;22.2;77.7
72124;BME280;63818;37.134;-8.548;2023-09-12T04:28:20;101298.4;;;22.1;77.9
72124;BME280;63818;37.134;-8.548;2023-09-12T04:33:06;101293.8;;;22.1;78.0
72124;BME280;63818;37.134;-8.548;2023-09-12T04:37:53;101294.4;;;22.0;77.9
72124;BME280;63818;37.134;-8.548;2023-09-12T04:42:39;101294.4;;;22.0;78.2
72124;BME280;63818;37.134;-8.548;2023-09-12T04:47:25;101299.1;;;22.0;77.4
72124;BME280;63818;37.134;-8.548;2023-09-12T04:52:10;101287.4;;;22.0;76.7
72124;BME280;63818;37.134;-8.548;2023-09-12T04:56:57;101290.1;;;22.0;76.6
72124;BME280;63818;37.134;-8.548;2023-09-12T05:01:42;101292.0;;;22.0;76.5
72124;BME280;63818;37.134;-8.548;2023-09-12T05:06:28;101293.5;;;21.9;76.5
72124;BME280;63818;37.134;-8.548;2023-09-12T05:11:14;101285.6;;;21.9;76.3
72124;BME280;63818;37.134;-8.548;2023-09-12T05:16:00;101290.7;;;21.9;76.0
72124;BME280;63818;37.134;-8.548;2023-09-12T05:20:46;101290.2;;;21.9;76.3
72124;BME280;63818;37.134;-8.548;2023-09-12T05:25:32;101293.8;;;21.9;76.4
72124;BME280;63818;37.134;-8.548;2023-09-12T05:30:18;101304.2;;;21.8;76.7
72124;BME280;63818;37.134;-8.548;2023-09-12T05:35:04;101293.3;;;21.8;76.4
72124;BME280;63818;37.134;-8.548;2023-09-12T05:39:51;101307.0;;;21.8;76.2
72124;BME280;63818;37.134;-8.548;2023-09-12T05:44:37;101300.7;;;21.8;76.3
72124;BME280;63818;37.134;-8.548;2023-09-12T05:49:23;101308.1;;;21.7;76.1
72124;BME280;63818;37.134;-8.548;2023-09-12T05:54:10;101307.6;;;21.7;76.2
72124;BME280;63818;37.134;-8.548;2023-09-12T05:58:55;101315.1;;;21.8;76.3
72124;BME280;63818;37.134;-8.548;2023-09-12T06:03:41;101319.5;;;21.8;76.1
72124;BME280;63818;37.134;-8.548;2023-09-12T06:08:27;101323.7;;;21.7;76.4
72124;BME280;63818;37.134;-8.548;2023-09-12T06:13:13;101321.7;;;21.7;76.6
72124;BME280;63818;37.134;-8.548;2023-09-12T06:17:59;101319.4;;;21.7;76.4
72124;BME280;63818;37.134;-8.548;2023-09-12T06:22:45;101313.4;;;21.7;76.3
72124;BME280;63818;37.134;-8.548;2023-09-12T06:27:31;101327.0;;;21.6;76.5
72124;BME280;63818;37.134;-8.548;2023-09-12T06:32:18;101331.7;;;21.6;76.4
72124;BME280;63818;37.134;-8.548;2023-09-12T06:37:04;101325.0;;;21.6;75.7
72124;BME280;63818;37.134;-8.548;2023-09-12T06:41:50;101335.6;;;21.6;75.5
72124;BME280;63818;37.134;-8.548;2023-09-12T06:46:37;101344.7;;;21.7;76.5
72124;BME280;63818;37.134;-8.548;2023-09-12T06:51:25;101345.4;;;21.7;75.9
72124;BME280;63818;37.134;-8.548;2023-09-12T06:56:11;101343.2;;;21.7;76.4
72124;BME280;63818;37.134;-8.548;2023-09-12T07:01:01;101345.6;;;21.7;76.4
72124;BME280;63818;37.134;-8.548;2023-09-12T07:05:48;101347.9;;;21.7;76.1
72124;BME280;63818;37.134;-8.548;2023-09-12T07:10:34;101346.4;;;21.7;75.4
72124;BME280;63818;37.134;-8.548;2023-09-12T07:15:20;101351.8;;;21.7;76.2
72124;BME280;63818;37.134;-8.548;2023-09-12T07:20:07;101351.4;;;21.8;75.5
72124;BME280;63818;37.134;-8.548;2023-09-12T07:24:54;101347.4;;;21.7;75.6
72124;BME280;63818;37.134;-8.548;2023-09-12T07:29:42;101355.3;;;21.7;75.8
72124;BME280;63818;37.134;-8.548;2023-09-12T07:34:30;101362.0;;;21.7;75.8
72124;BME280;63818;37.134;-8.548;2023-09-12T07:39:21;101359.7;;;21.8;75.5
72124;BME280;63818;37.134;-8.548;2023-09-12T07:44:08;101358.2;;;21.8;75.4
72124;BME280;63818;37.134;-8.548;2023-09-12T07:48:53;101361.7;;;21.8;75.4
72124;BME280;63818;37.134;-8.548;2023-09-12T07:53:40;101366.8;;;21.8;75.2
72124;BME280;63818;37.134;-8.548;2023-09-12T07:58:26;101360.2;;;21.9;75.2
72124;BME280;63818;37.134;-8.548;2023-09-12T08:03:15;101367.1;;;22.0;75.7
72124;BME280;63818;37.134;-8.548;2023-09-12T08:08:01;101370.5;;;21.9;74.8
72124;BME280;63818;37.134;-8.548;2023-09-12T08:12:47;101379.4;;;21.9;75.5
72124;BME280;63818;37.134;-8.548;2023-09-12T08:17:35;101376.6;;;21.9;75.2
72124;BME280;63818;37.134;-8.548;2023-09-12T08:22:25;101386.9;;;21.9;75.8
72124;BME280;63818;37.134;-8.548;2023-09-12T08:27:11;101388.2;;;22.0;75.4
72124;BME280;63818;37.134;-8.548;2023-09-12T08:32:04;101391.8;;;22.0;76.0
72124;BME280;63818;37.134;-8.548;2023-09-12T08:36:50;101389.8;;;22.0;74.8
72124;BME280;63818;37.134;-8.548;2023-09-12T08:41:38;101392.3;;;22.1;76.4
72124;BME280;63818;37.134;-8.548;2023-09-12T08:46:24;101387.6;;;22.1;74.8
72124;BME280;63818;37.134;-8.548;2023-09-12T08:51:16;101387.7;;;22.2;75.5
72124;BME280;63818;37.134;-8.548;2023-09-12T08:56:02;101390.8;;;22.2;75.2
72124;BME280;63818;37.134;-8.548;2023-09-12T09:00:50;101394.0;;;22.2;74.8
72124;BME280;63818;37.134;-8.548;2023-09-12T09:05:41;101390.2;;;22.3;75.5
72124;BME280;63818;37.134;-8.548;2023-09-12T09:10:28;101402.0;;;22.3;75.6
72124;BME280;63818;37.134;-8.548;2023-09-12T09:15:25;101407.5;;;22.4;73.8
72124;BME280;63818;37.134;-8.548;2023-09-12T09:20:30;101393.8;;;22.4;73.3
72124;BME280;63818;37.134;-8.548;2023-09-12T09:25:16;101396.2;;;22.4;73.0
72124;BME280;63818;37.134;-8.548;2023-09-12T09:30:05;101388.5;;;22.5;72.2
72124;BME280;63818;37.134;-8.548;2023-09-12T09:34:52;101397.1;;;22.5;72.7
72124;BME280;63818;37.134;-8.548;2023-09-12T09:39:38;101392.4;;;22.5;71.4
72124;BME280;63818;37.134;-8.548;2023-09-12T09:44:29;101391.7;;;22.5;71.0
72124;BME280;63818;37.134;-8.548;2023-09-12T09:49:17;101410.5;;;22.6;72.6
72124;BME280;63818;37.134;-8.548;2023-09-12T09:54:10;101400.4;;;22.6;70.8
72124;BME280;63818;37.134;-8.548;2023-09-12T09:58:56;101397.3;;;22.6;70.6
72124;BME280;63818;37.134;-8.548;2023-09-12T10:03:47;101396.6;;;22.7;71.0
72124;BME280;63818;37.134;-8.548;2023-09-12T10:08:35;101405.3;;;22.8;72.5
72124;BME280;63818;37.134;-8.548;2023-09-12T10:13:21;101395.9;;;22.8;72.6
72124;BME280;63818;37.134;-8.548;2023-09-12T10:18:14;101404.5;;;22.7;72.5
72124;BME280;63818;37.134;-8.548;2023-09-12T10:23:08;101398.3;;;22.8;71.5
72124;BME280;63818;37.134;-8.548;2023-09-12T10:32:54;101388.2;;;22.9;70.1
72124;BME280;63818;37.134;-8.548;2023-09-12T10:37:46;101381.6;;;23.0;69.3
72124;BME280;63818;37.134;-8.548;2023-09-12T10:42:35;101390.3;;;23.0;71.2
72124;BME280;63818;37.134;-8.548;2023-09-12T10:47:24;101391.4;;;23.0;71.8
72124;BME280;63818;37.134;-8.548;2023-09-12T10:52:12;101388.7;;;22.9;72.2
72124;BME280;63818;37.134;-8.548;2023-09-12T10:57:08;101387.1;;;22.9;70.4
72124;BME280;63818;37.134;-8.548;2023-09-12T11:01:55;101378.9;;;23.0;69.1
72124;BME280;63818;37.134;-8.548;2023-09-12T11:06:42;101368.8;;;23.0;68.3
72124;BME280;63818;37.134;-8.548;2023-09-12T11:11:28;101365.7;;;23.0;67.7
72124;BME280;63818;37.134;-8.548;2023-09-12T11:16:18;101367.3;;;23.1;68.0
72124;BME280;63818;37.134;-8.548;2023-09-12T11:21:04;101360.7;;;23.1;68.0
72124;BME280;63818;37.134;-8.548;2023-09-12T11:26:08;101359.5;;;23.1;68.0
72124;BME280;63818;37.134;-8.548;2023-09-12T11:30:58;101355.2;;;23.1;67.3
72124;BME280;63818;37.134;-8.548;2023-09-12T11:35:46;101356.4;;;23.1;67.0
72124;BME280;63818;37.134;-8.548;2023-09-12T11:40:47;101349.3;;;23.1;66.7
72124;BME280;63818;37.134;-8.548;2023-09-12T11:45:35;101358.4;;;23.1;66.7
72124;BME280;63818;37.134;-8.548;2023-09-12T11:50:29;101351.0;;;23.2;66.9
72124;BME280;63818;37.134;-8.548;2023-09-12T11:55:26;101345.9;;;23.2;65.9
72124;BME280;63818;37.134;-8.548;2023-09-12T12:00:15;101343.6;;;23.3;66.0
72124;BME280;63818;37.134;-8.548;2023-09-12T12:05:01;101342.4;;;23.2;66.7
72124;BME280;63818;37.134;-8.548;2023-09-12T12:09:48;101340.9;;;23.3;68.2
72124;BME280;63818;37.134;-8.548;2023-09-12T12:14:41;101330.3;;;23.3;67.1
72124;BME280;63818;37.134;-8.548;2023-09-12T12:19:27;101336.2;;;23.3;68.4
72124;BME280;63818;37.134;-8.548;2023-09-12T12:24:18;101328.8;;;23.4;66.4
72124;BME280;63818;37.134;-8.548;2023-09-12T12:29:04;101317.1;;;23.4;66.3
72124;BME280;63818;37.134;-8.548;2023-09-12T12:33:53;101318.6;;;23.4;65.9
72124;BME280;63818;37.134;-8.548;2023-09-12T12:38:40;101312.5;;;23.5;65.5
72124;BME280;63818;37.134;-8.548;2023-09-12T12:43:26;101303.1;;;23.5;66.0
72124;BME280;63818;37.134;-8.548;2023-09-12T12:48:15;101300.4;;;23.5;64.3
72124;BME280;63818;37.134;-8.548;2023-09-12T12:53:00;101309.4;;;23.6;65.0
72124;BME280;63818;37.134;-8.548;2023-09-12T12:57:48;101284.0;;;23.7;63.4
72124;BME280;63818;37.134;-8.548;2023-09-12T13:02:37;101285.2;;;23.7;61.5
72124;BME280;63818;37.134;-8.548;2023-09-12T13:07:31;101275.1;;;23.9;60.9
72124;BME280;63818;37.134;-8.548;2023-09-12T13:12:20;101268.9;;;24.0;61.0
72124;BME280;63818;37.134;-8.548;2023-09-12T13:17:06;101265.8;;;24.1;60.4
72124;BME280;63818;37.134;-8.548;2023-09-12T13:21:52;101261.9;;;24.2;60.4
72124;BME280;63818;37.134;-8.548;2023-09-12T13:26:37;101263.9;;;24.2;60.7
72124;BME280;63818;37.134;-8.548;2023-09-12T13:31:24;101258.0;;;24.3;60.6
72124;BME280;63818;37.134;-8.548;2023-09-12T13:36:11;101245.1;;;24.3;60.6
72124;BME280;63818;37.134;-8.548;2023-09-12T13:40:58;101251.4;;;24.5;59.5
72124;BME280;63818;37.134;-8.548;2023-09-12T13:45:46;101242.4;;;24.6;59.1
72124;BME280;63818;37.134;-8.548;2023-09-12T13:50:32;101236.2;;;24.7;58.5
72124;BME280;63818;37.134;-8.548;2023-09-12T13:55:18;101225.5;;;24.8;58.1
72124;BME280;63818;37.134;-8.548;2023-09-12T14:00:11;101229.9;;;24.8;57.8
72124;BME280;63818;37.134;-8.548;2023-09-12T14:04:57;101205.2;;;25.0;57.1
72124;BME280;63818;37.134;-8.548;2023-09-12T14:09:47;101195.7;;;25.2;56.7
72124;BME280;63818;37.134;-8.548;2023-09-12T14:14:33;101188.6;;;25.2;56.5
72124;BME280;63818;37.134;-8.548;2023-09-12T14:19:20;101194.6;;;25.1;56.3
72124;BME280;63818;37.134;-8.548;2023-09-12T14:24:10;101192.2;;;25.1;55.4
72124;BME280;63818;37.134;-8.548;2023-09-12T14:28:59;101181.9;;;25.4;54.1
72124;BME280;63818;37.134;-8.548;2023-09-12T14:33:47;101167.0;;;25.5;53.5
72124;BME280;63818;37.134;-8.548;2023-09-12T14:38:33;101180.7;;;25.7;53.0
72124;BME280;63818;37.134;-8.548;2023-09-12T14:43:25;101143.3;;;25.7;52.9
72124;BME280;63818;37.134;-8.548;2023-09-12T14:48:11;101155.5;;;25.7;52.8
72124;BME280;63818;37.134;-8.548;2023-09-12T14:53:05;101149.6;;;25.8;52.2
72124;BME280;63818;37.134;-8.548;2023-09-12T14:57:51;101149.1;;;26.0;51.2
72124;BME280;63818;37.134;-8.548;2023-09-12T15:07:24;101127.6;;;26.9;48.2
72124;BME280;63818;37.134;-8.548;2023-09-12T15:12:15;101148.1;;;28.2;45.1
72124;BME280;63818;37.134;-8.548;2023-09-12T15:17:01;101145.4;;;28.9;43.3
72124;BME280;63818;37.134;-8.548;2023-09-12T15:22:24;101128.6;;;29.3;42.5
72124;BME280;63818;37.134;-8.548;2023-09-12T15:27:11;101135.3;;;29.2;42.2
72124;BME280;63818;37.134;-8.548;2023-09-12T15:31:57;101118.2;;;29.3;42.6
72124;BME280;63818;37.134;-8.548;2023-09-12T15:36:45;101103.4;;;29.4;41.7
72124;BME280;63818;37.134;-8.548;2023-09-12T15:41:32;101121.7;;;29.4;42.1
72124;BME280;63818;37.134;-8.548;2023-09-12T15:46:18;101106.1;;;29.4;41.5
72124;BME280;63818;37.134;-8.548;2023-09-12T15:51:04;101113.0;;;29.5;41.5
72124;BME280;63818;37.134;-8.548;2023-09-12T15:55:54;101091.7;;;29.7;41.3
72124;BME280;63818;37.134;-8.548;2023-09-12T16:00:47;101139.5;;;29.6;40.6
72124;BME280;63818;37.134;-8.548;2023-09-12T16:05:38;101103.3;;;29.5;41.0
72124;BME280;63818;37.134;-8.548;2023-09-12T16:10:26;101122.1;;;29.5;41.1
72124;BME280;63818;37.134;-8.548;2023-09-12T16:15:13;101096.6;;;29.4;41.9
72124;BME280;63818;37.134;-8.548;2023-09-12T16:19:59;101116.9;;;29.0;42.6
72124;BME280;63818;37.134;-8.548;2023-09-12T16:24:45;101127.2;;;28.9;43.4
72124;BME280;63818;37.134;-8.548;2023-09-12T16:29:31;101113.2;;;28.8;44.0
72124;BME280;63818;37.134;-8.548;2023-09-12T16:34:17;101128.4;;;28.7;44.1
72124;BME280;63818;37.134;-8.548;2023-09-12T16:39:03;101147.3;;;28.5;44.4
72124;BME280;63818;37.134;-8.548;2023-09-12T16:43:49;101128.9;;;28.4;44.9
72124;BME280;63818;37.134;-8.548;2023-09-12T16:48:37;101123.1;;;28.3;45.3
72124;BME280;63818;37.134;-8.548;2023-09-12T16:53:23;101112.2;;;28.2;45.4
72124;BME280;63818;37.134;-8.548;2023-09-12T16:58:16;101149.5;;;27.8;46.4
72124;BME280;63818;37.134;-8.548;2023-09-12T17:03:02;101137.8;;;27.6;46.6
72124;BME280;63818;37.134;-8.548;2023-09-12T17:07:51;101150.4;;;27.7;47.0
72124;BME280;63818;37.134;-8.548;2023-09-12T17:12:39;101151.5;;;27.5;47.4
72124;BME280;63818;37.134;-8.548;2023-09-12T17:17:25;101163.1;;;27.3;48.1
72124;BME280;63818;37.134;-8.548;2023-09-12T17:22:11;101138.8;;;27.1;48.3
72124;BME280;63818;37.134;-8.548;2023-09-12T17:26:57;101144.4;;;27.1;48.9
72124;BME280;63818;37.134;-8.548;2023-09-12T17:31:43;101157.4;;;27.0;49.2
72124;BME280;63818;37.134;-8.548;2023-09-12T17:36:36;101156.0;;;26.8;49.5
72124;BME280;63818;37.134;-8.548;2023-09-12T17:41:23;101193.9;;;26.7;49.7
72124;BME280;63818;37.134;-8.548;2023-09-12T17:46:08;101156.7;;;26.5;50.1
72124;BME280;63818;37.134;-8.548;2023-09-12T17:50:54;101158.3;;;26.4;49.8
72124;BME280;63818;37.134;-8.548;2023-09-12T17:55:43;101149.7;;;26.4;50.2
72124;BME280;63818;37.134;-8.548;2023-09-12T18:00:31;101161.9;;;26.3;51.5
72124;BME280;63818;37.134;-8.548;2023-09-12T18:05:18;101171.8;;;26.2;50.8
72124;BME280;63818;37.134;-8.548;2023-09-12T18:10:05;101171.1;;;26.0;51.2
72124;BME280;63818;37.134;-8.548;2023-09-12T18:14:52;101162.1;;;25.9;52.2
72124;BME280;63818;37.134;-8.548;2023-09-12T18:19:40;101164.5;;;25.8;52.8
72124;BME280;63818;37.134;-8.548;2023-09-12T18:24:26;101171.6;;;25.7;54.1
72124;BME280;63818;37.134;-8.548;2023-09-12T18:29:15;101189.0;;;25.5;55.1
72124;BME280;63818;37.134;-8.548;2023-09-12T18:34:01;101175.3;;;25.2;56.5
72124;BME280;63818;37.134;-8.548;2023-09-12T18:38:47;101163.1;;;25.1;57.0
72124;BME280;63818;37.134;-8.548;2023-09-12T18:43:33;101172.2;;;25.0;57.5
72124;BME280;63818;37.134;-8.548;2023-09-12T18:48:19;101202.8;;;24.8;58.2
72124;BME280;63818;37.134;-8.548;2023-09-12T18:53:06;101214.9;;;24.7;59.2
72124;BME280;63818;37.134;-8.548;2023-09-12T18:57:52;101197.7;;;24.6;60.0
72124;BME280;63818;37.134;-8.548;2023-09-12T19:02:38;101200.0;;;24.6;60.7
72124;BME280;63818;37.134;-8.548;2023-09-12T19:07:24;101211.4;;;24.4;61.1
72124;BME280;63818;37.134;-8.548;2023-09-12T19:12:10;101221.6;;;24.3;62.2
72124;BME280;63818;37.134;-8.548;2023-09-12T19:16:55;101228.1;;;24.1;63.0
72124;BME280;63818;37.134;-8.548;2023-09-12T19:21:41;101229.3;;;24.1;63.2
72124;BME280;63818;37.134;-8.548;2023-09-12T19:26:27;101233.5;;;23.9;63.9
72124;BME280;63818;37.134;-8.548;2023-09-12T19:31:13;101260.5;;;23.8;64.7
72124;BME280;63818;37.134;-8.548;2023-09-12T19:35:59;101265.6;;;23.8;65.0
72124;BME280;63818;37.134;-8.548;2023-09-12T19:40:45;101261.3;;;23.8;65.2
72124;BME280;63818;37.134;-8.548;2023-09-12T19:45:33;101272.7;;;23.8;65.4
72124;BME280;63818;37.134;-8.548;2023-09-12T19:50:19;101280.9;;;23.8;66.1
72124;BME280;63818;37.134;-8.548;2023-09-12T19:55:05;101293.4;;;23.7;66.1
72124;BME280;63818;37.134;-8.548;2023-09-12T19:59:52;101298.4;;;23.5;67.0
72124;BME280;63818;37.134;-8.548;2023-09-12T20:04:39;101300.4;;;23.6;66.8
72124;BME280;63818;37.134;-8.548;2023-09-12T20:09:24;101301.5;;;23.6;66.8
72124;BME280;63818;37.134;-8.548;2023-09-12T20:14:11;101298.8;;;23.5;67.0
72124;BME280;63818;37.134;-8.548;2023-09-12T20:18:56;101305.4;;;23.5;66.5
72124;BME280;63818;37.134;-8.548;2023-09-12T20:23:42;101301.4;;;23.5;66.7
72124;BME280;63818;37.134;-8.548;2023-09-12T20:28:28;101310.5;;;23.5;66.7
72124;BME280;63818;37.134;-8.548;2023-09-12T20:33:14;101303.4;;;23.4;67.0
72124;BME280;63818;37.134;-8.548;2023-09-12T20:38:01;101321.9;;;23.5;66.8
72124;BME280;63818;37.134;-8.548;2023-09-12T20:42:47;101328.5;;;23.5;66.5
72124;BME280;63818;37.134;-8.548;2023-09-12T20:47:33;101319.5;;;23.5;66.4
72124;BME280;63818;37.134;-8.548;2023-09-12T20:52:19;101321.9;;;23.5;66.4
72124;BME280;63818;37.134;-8.548;2023-09-12T20:57:05;101312.9;;;23.5;66.2
72124;BME280;63818;37.134;-8.548;2023-09-12T21:01:51;101331.3;;;23.6;66.4
72124;BME280;63818;37.134;-8.548;2023-09-12T21:06:37;101316.0;;;23.5;66.5
72124;BME280;63818;37.134;-8.548;2023-09-12T21:11:23;101321.1;;;23.5;66.7
72124;BME280;63818;37.134;-8.548;2023-09-12T21:16:09;101326.2;;;23.5;66.7
72124;BME280;63818;37.134;-8.548;2023-09-12T21:20:57;101331.3;;;23.5;66.9
72124;BME280;63818;37.134;-8.548;2023-09-12T21:25:45;101339.5;;;23.5;66.8
72124;BME280;63818;37.134;-8.548;2023-09-12T21:30:33;101323.0;;;23.5;67.1
72124;BME280;63818;37.134;-8.548;2023-09-12T21:35:22;101328.5;;;23.5;66.8
72124;BME280;63818;37.134;-8.548;2023-09-12T21:40:09;101325.8;;;23.5;67.2
72124;BME280;63818;37.134;-8.548;2023-09-12T21:44:56;101328.9;;;23.5;67.1
72124;BME280;63818;37.134;-8.548;2023-09-12T21:50:04;101335.4;;;23.4;67.3
72124;BME280;63818;37.134;-8.548;2023-09-12T21:54:51;101331.9;;;23.4;67.7
72124;BME280;63818;37.134;-8.548;2023-09-12T21:59:37;101332.3;;;23.4;68.0
72124;BME280;63818;37.134;-8.548;2023-09-12T22:04:30;101332.0;;;23.4;67.5
72124;BME280;63818;37.134;-8.548;2023-09-12T22:09:16;101334.0;;;23.5;67.4
72124;BME280;63818;37.134;-8.548;2023-09-12T22:14:03;101340.2;;;23.4;67.1
72124;BME280;63818;37.134;-8.548;2023-09-12T22:18:52;101344.0;;;23.4;67.0
72124;BME280;63818;37.134;-8.548;2023-09-12T22:23:45;101335.1;;;23.4;67.0
72124;BME280;63818;37.134;-8.548;2023-09-12T22:28:32;101338.6;;;23.4;67.2
72124;BME280;63818;37.134;-8.548;2023-09-12T22:33:18;101325.3;;;23.4;67.0
72124;BME280;63818;37.134;-8.548;2023-09-12T22:38:09;101339.4;;;23.4;67.2
72124;BME280;63818;37.134;-8.548;2023-09-12T22:42:55;101332.7;;;23.4;67.0
72124;BME280;63818;37.134;-8.548;2023-09-12T22:47:43;101327.2;;;23.3;67.2
72124;BME280;63818;37.134;-8.548;2023-09-12T22:52:29;101331.9;;;23.4;67.4
72124;BME280;63818;37.134;-8.548;2023-09-12T22:57:15;101324.8;;;23.4;67.5
72124;BME280;63818;37.134;-8.548;2023-09-12T23:02:01;101320.5;;;23.3;67.5
72124;BME280;63818;37.134;-8.548;2023-09-12T23:06:54;101326.7;;;23.2;68.2
72124;BME280;63818;37.134;-8.548;2023-09-12T23:11:41;101316.1;;;23.2;68.2
72124;BME280;63818;37.134;-8.548;2023-09-12T23:16:27;101320.4;;;23.2;68.1
72124;BME280;63818;37.134;-8.548;2023-09-12T23:21:16;101318.2;;;23.3;67.9
72124;BME280;63818;37.134;-8.548;2023-09-12T23:26:04;101318.8;;;23.2;67.8
72124;BME280;63818;37.134;-8.548;2023-09-12T23:30:50;97731.9;;;-1.0;66.0
72124;BME280;63818;37.134;-8.548;2023-09-12T23:35:38;101316.5;;;23.2;68.0
72124;BME280;63818;37.134;-8.548;2023-09-12T23:40:24;101308.7;;;23.2;67.6
72124;BME280;63818;37.134;-8.548;2023-09-12T23:45:13;97718.7;;;-1.0;65.8
72124;BME280;63818;37.134;-8.548;2023-09-12T23:50:02;101300.8;;;23.1;67.5
72124;BME280;63818;37.134;-8.548;2023-09-12T23:54:56;101293.8;;;23.2;67.4
72124;BME280;63818;37.134;-8.548;2023-09-12T23:59:44;101302.1;;;23.3;67.0
